Time;durP1;ratioP1;P1;durP2;ratioP2;P2;SDS_P1;SDS_P2;PMS_P1;PMS_P2;Temp;Humidity;BMP_temperature;BMP_pressure;BME280_temperature;BME280_humidity;BME280_pressure;Samples;Min_cycle;Max_cycle;Signal;HPM_P1;HPM_P2
2022/07/16 00:01:49;;;;;;;2.55;1.80;;;16.40;99.90;;;;;;4922246;28;90245;-30
2022/07/16 00:04:15;;;;;;;3.20;1.90;;;16.30;99.90;;;;;;4922642;28;88817;-33
2022/07/16 00:09:18;;;;;;;4.50;2.30;;;16.20;99.90;;;;;;4900628;28;89529;-31
2022/07/16 00:11:43;;;;;;;4.22;2.20;;;16.20;99.90;;;;;;4903691;28;90234;-34
2022/07/16 00:14:09;;;;;;;2.20;1.52;;;16.20;99.90;;;;;;4902525;28;88945;-31
2022/07/16 00:16:35;;;;;;;2.67;2.10;;;16.20;99.90;;;;;;4903248;28;88794;-34
2022/07/16 00:19:15;;;;;;;2.33;2.13;;;16.10;99.90;;;;;;4903401;28;89402;-33
2022/07/16 00:21:43;;;;;;;1.90;1.70;;;16.10;99.90;;;;;;4903705;28;89869;-32
2022/07/16 00:24:09;;;;;;;3.90;2.50;;;16.10;99.90;;;;;;4903171;28;89430;-32
2022/07/16 00:26:35;;;;;;;2.25;2.05;;;16.10;99.90;;;;;;4902591;28;90641;-33
2022/07/16 00:29:00;;;;;;;2.03;1.92;;;16.00;99.90;;;;;;4903384;28;89924;-30
2022/07/16 00:31:26;;;;;;;2.25;1.83;;;16.00;99.90;;;;;;4902944;28;88601;-32
2022/07/16 00:33:52;;;;;;;6.30;2.60;;;15.90;99.90;;;;;;4903256;28;90230;-32
2022/07/16 00:36:17;;;;;;;3.00;2.50;;;15.90;99.90;;;;;;4902513;28;90227;-31
2022/07/16 00:38:43;;;;;;;4.13;2.38;;;15.90;99.90;;;;;;4902004;28;91164;-32
2022/07/16 00:41:16;;;;;;;2.47;2.25;;;15.90;99.90;;;;;;4902869;28;90990;-31
2022/07/16 00:43:50;;;;;;;2.40;2.17;;;15.80;99.90;;;;;;4903426;28;89701;-35
2022/07/16 00:46:16;;;;;;;5.30;2.30;;;15.80;99.90;;;;;;4902818;28;90531;-30
2022/07/16 00:48:43;;;;;;;2.38;2.17;;;15.80;99.90;;;;;;4902679;28;89740;-31
2022/07/16 00:51:08;;;;;;;2.53;2.33;;;15.80;99.90;;;;;;4902790;28;89744;-31
2022/07/16 00:53:35;;;;;;;4.15;2.47;;;15.80;99.90;;;;;;4902556;28;87739;-30
2022/07/16 00:56:01;;;;;;;4.47;2.42;;;15.90;99.90;;;;;;4902197;28;90242;-33
2022/07/16 00:58:27;;;;;;;6.28;2.88;;;15.90;99.90;;;;;;4901403;28;90661;-33
2022/07/16 01:00:53;;;;;;;3.45;3.15;;;15.90;99.90;;;;;;4902269;28;90065;-31
2022/07/16 01:03:18;;;;;;;4.30;3.15;;;15.90;99.90;;;;;;4902233;28;90427;-30
2022/07/16 01:05:45;;;;;;;3.53;2.90;;;15.90;99.90;;;;;;4902283;28;89236;-30
2022/07/16 01:08:11;;;;;;;2.45;2.25;;;15.90;99.90;;;;;;4922136;28;90204;-35
2022/07/16 01:10:39;;;;;;;3.97;2.97;;;15.90;99.90;;;;;;4940483;28;89589;-32
2022/07/16 01:13:06;;;;;;;9.57;3.70;;;15.90;99.90;;;;;;4941521;28;89619;-32
2022/07/16 01:15:31;;;;;;;6.00;4.07;;;16.00;99.90;;;;;;4941054;28;90948;-31
2022/07/16 01:17:57;;;;;;;3.15;2.85;;;16.00;99.90;;;;;;4941225;28;89756;-30
2022/07/16 01:20:23;;;;;;;5.35;3.25;;;15.90;99.90;;;;;;4940827;28;89931;-33
2022/07/16 01:22:51;;;;;;;3.60;2.80;;;15.90;99.90;;;;;;4941438;28;89088;-34
2022/07/16 01:25:17;;;;;;;2.83;2.58;;;15.90;99.90;;;;;;4940775;28;90186;-32
2022/07/16 01:27:43;;;;;;;4.10;2.88;;;15.90;99.90;;;;;;4939712;28;92376;-36
2022/07/16 01:30:10;;;;;;;3.03;2.83;;;15.90;99.90;;;;;;4941772;28;90121;-30
2022/07/16 01:32:36;;;;;;;2.58;2.38;;;15.90;99.90;;;;;;4941271;28;88773;-33
2022/07/16 01:35:02;;;;;;;3.35;2.80;;;15.90;99.90;;;;;;4940684;28;90562;-34
2022/07/16 01:37:28;;;;;;;10.35;3.53;;;15.90;99.90;;;;;;4940337;28;89721;-30
2022/07/16 01:39:54;;;;;;;8.35;3.55;;;15.90;99.90;;;;;;4940925;28;89838;-29
2022/07/16 01:42:19;;;;;;;9.18;3.30;;;15.90;99.90;;;;;;4940916;28;87615;-31
2022/07/16 01:44:45;;;;;;;3.78;2.47;;;15.90;99.90;;;;;;4941906;28;90100;-32
2022/07/16 01:47:10;;;;;;;5.70;3.30;;;16.00;99.90;;;;;;4940087;28;89617;-33
2022/07/16 01:49:38;;;;;;;4.13;2.45;;;16.00;99.90;;;;;;4941497;28;89521;-30
2022/07/16 01:52:17;;;;;;;8.27;3.73;;;16.00;99.90;;;;;;4939980;28;88507;-30
2022/07/16 01:54:45;;;;;;;5.43;3.63;;;15.90;99.90;;;;;;4941245;28;90691;-30
2022/07/16 01:57:10;;;;;;;5.18;3.22;;;15.80;99.90;;;;;;4940506;28;89583;-31
2022/07/16 01:59:37;;;;;;;4.03;3.63;;;15.80;99.90;;;;;;4941023;28;88943;-30
2022/07/16 02:02:03;;;;;;;4.45;3.63;;;15.70;99.90;;;;;;4940457;28;88020;-32
2022/07/16 02:04:29;;;;;;;3.83;3.33;;;15.60;99.90;;;;;;4940799;28;89244;-31
2022/07/16 02:06:55;;;;;;;5.00;4.00;;;15.50;99.90;;;;;;4940476;28;89582;-35
2022/07/16 02:09:20;;;;;;;4.55;4.15;;;15.50;99.90;;;;;;4938728;28;89431;-31
2022/07/16 02:11:46;;;;;;;5.57;3.95;;;15.50;99.90;;;;;;4940395;28;89099;-33
2022/07/16 02:14:12;;;;;;;5.60;3.75;;;15.40;99.90;;;;;;4940387;28;90004;-34
2022/07/16 02:16:37;;;;;;;4.68;4.28;;;15.40;99.90;;;;;;4939730;28;90404;-30
2022/07/16 02:19:03;;;;;;;4.72;3.85;;;15.30;99.90;;;;;;4940276;28;90942;-33
2022/07/16 02:21:31;;;;;;;5.85;4.15;;;15.30;99.90;;;;;;4940205;28;88205;-32
2022/07/16 02:23:58;;;;;;;5.35;4.15;;;15.30;99.90;;;;;;4940210;28;90314;-33
2022/07/16 02:26:23;;;;;;;5.00;4.28;;;15.30;99.90;;;;;;4940248;28;90159;-34
2022/07/16 02:28:49;;;;;;;3.50;3.20;;;15.30;99.90;;;;;;4940231;28;89834;-32
2022/07/16 02:31:14;;;;;;;4.35;3.78;;;15.30;99.90;;;;;;4940245;28;89472;-34
2022/07/16 02:33:40;;;;;;;4.68;4.18;;;15.20;99.90;;;;;;4940312;28;90232;-30
2022/07/16 02:36:06;;;;;;;8.93;5.22;;;15.20;99.90;;;;;;4938836;28;89681;-31
2022/07/16 02:38:32;;;;;;;7.35;3.85;;;15.20;99.90;;;;;;4940516;28;89456;-34
2022/07/16 02:40:57;;;;;;;4.80;3.92;;;15.20;99.90;;;;;;4940178;28;90691;-33
2022/07/16 02:43:23;;;;;;;4.30;3.90;;;15.10;99.90;;;;;;4939464;28;90441;-34
2022/07/16 02:45:48;;;;;;;5.80;4.40;;;15.20;99.90;;;;;;4939920;28;90303;-31
2022/07/16 02:48:14;;;;;;;4.38;3.67;;;15.10;99.90;;;;;;4939159;28;89400;-32
2022/07/16 02:50:40;;;;;;;9.00;3.95;;;15.20;99.90;;;;;;4940374;28;89267;-32
2022/07/16 02:53:06;;;;;;;6.03;4.45;;;15.10;99.90;;;;;;4939463;28;90157;-33
2022/07/16 02:55:31;;;;;;;5.13;3.40;;;15.20;99.90;;;;;;4940368;28;89702;-32
2022/07/16 02:57:57;;;;;;;6.65;4.57;;;15.10;99.90;;;;;;4939746;28;89634;-31
2022/07/16 03:00:23;;;;;;;4.47;3.88;;;15.10;99.90;;;;;;4940224;28;90126;-29
2022/07/16 03:02:49;;;;;;;4.70;3.40;;;15.10;99.90;;;;;;4939778;28;90361;-30
2022/07/16 03:05:15;;;;;;;5.13;3.53;;;15.10;99.90;;;;;;4941422;28;90272;-31
2022/07/16 03:07:41;;;;;;;6.30;4.38;;;15.10;99.90;;;;;;4942730;28;90452;-32
2022/07/16 03:10:09;;;;;;;4.13;3.50;;;15.10;99.90;;;;;;4943075;28;89056;-33
2022/07/16 03:12:35;;;;;;;3.33;2.95;;;15.00;99.90;;;;;;4943387;28;89539;-32
2022/07/16 03:15:03;;;;;;;8.23;3.92;;;15.00;99.90;;;;;;4943470;28;89463;-31
2022/07/16 03:17:29;;;;;;;3.45;3.15;;;15.00;99.90;;;;;;4942895;28;89471;-32
2022/07/16 03:19:55;;;;;;;7.28;3.88;;;14.90;99.90;;;;;;4942743;28;88697;-31
2022/07/16 03:22:21;;;;;;;4.25;3.50;;;14.90;99.90;;;;;;4942550;28;90082;-32
2022/07/16 03:24:46;;;;;;;6.93;3.55;;;14.90;99.90;;;;;;4943197;28;90966;-31
2022/07/16 03:27:12;;;;;;;3.55;3.25;;;14.80;99.90;;;;;;4942439;28;89603;-31
2022/07/16 03:29:38;;;;;;;4.75;3.83;;;14.80;99.90;;;;;;4943035;28;88034;-33
2022/07/16 03:32:04;;;;;;;3.78;3.38;;;14.80;99.90;;;;;;4941986;28;90089;-29
2022/07/16 03:34:31;;;;;;;4.57;3.70;;;14.80;99.90;;;;;;4942636;28;90366;-33
2022/07/16 03:36:56;;;;;;;4.25;3.22;;;14.80;99.90;;;;;;4943294;28;89833;-30
2022/07/16 03:39:22;;;;;;;3.88;3.20;;;14.80;99.90;;;;;;4943044;28;89015;-30
2022/07/16 03:41:48;;;;;;;3.85;3.25;;;14.80;99.90;;;;;;4943330;28;90021;-33
2022/07/16 03:44:13;;;;;;;4.05;3.65;;;14.80;99.90;;;;;;4942459;28;89702;-32
2022/07/16 03:46:39;;;;;;;7.78;4.32;;;14.80;99.90;;;;;;4942684;28;89403;-34
2022/07/16 03:49:05;;;;;;;3.88;3.50;;;14.80;99.90;;;;;;4942343;28;88878;-32
2022/07/16 03:51:31;;;;;;;3.50;3.20;;;14.70;99.90;;;;;;4942182;28;90462;-30
2022/07/16 03:53:57;;;;;;;4.43;3.90;;;14.70;99.90;;;;;;4942450;28;90314;-29
2022/07/16 03:56:24;;;;;;;4.75;3.13;;;14.80;99.90;;;;;;4941900;28;90828;-30
2022/07/16 03:58:50;;;;;;;5.03;3.40;;;14.80;99.90;;;;;;4941908;28;88558;-33
2022/07/16 04:01:16;;;;;;;6.07;3.22;;;14.80;99.90;;;;;;4942515;28;90844;-33
2022/07/16 04:03:41;;;;;;;3.13;2.83;;;14.80;99.90;;;;;;4942224;28;89868;-32
2022/07/16 04:06:07;;;;;;;2.92;2.70;;;14.70;99.90;;;;;;4942669;28;89887;-31
2022/07/16 04:08:33;;;;;;;3.65;2.88;;;14.70;99.90;;;;;;4941284;28;88581;-29
2022/07/16 04:11:00;;;;;;;6.57;3.58;;;14.70;99.90;;;;;;4942175;28;88889;-34
2022/07/16 04:13:25;;;;;;;7.80;3.42;;;14.70;99.90;;;;;;4942392;28;89634;-31
2022/07/16 04:15:51;;;;;;;5.22;3.33;;;14.70;99.90;;;;;;4941241;28;89201;-32
2022/07/16 04:18:17;;;;;;;2.58;2.38;;;14.60;99.90;;;;;;4942090;28;89684;-31
2022/07/16 04:20:42;;;;;;;3.10;2.80;;;14.60;99.90;;;;;;4942152;28;90159;-31
2022/07/16 04:23:08;;;;;;;6.63;3.78;;;14.60;99.90;;;;;;4942137;28;89793;-32
2022/07/16 04:25:34;;;;;;;3.25;2.85;;;14.60;99.90;;;;;;4942485;28;89610;-32
2022/07/16 04:28:00;;;;;;;3.38;2.22;;;14.60;99.90;;;;;;4941310;28;89276;-31
2022/07/16 04:30:26;;;;;;;4.57;3.20;;;14.60;99.90;;;;;;4942575;28;89902;-33
2022/07/16 04:32:51;;;;;;;4.97;3.13;;;14.70;99.90;;;;;;4941069;28;90888;-32
2022/07/16 04:35:17;;;;;;;7.18;3.10;;;14.70;99.90;;;;;;4942152;28;89681;-30
2022/07/16 04:37:44;;;;;;;3.05;2.45;;;14.80;99.90;;;;;;4942662;28;88941;-29
2022/07/16 04:40:12;;;;;;;4.68;3.05;;;14.90;99.90;;;;;;4941845;28;90428;-32
2022/07/16 04:42:42;;;;;;;3.03;2.70;;;15.10;99.90;;;;;;4940755;28;90241;-31
2022/07/16 04:45:09;;;;;;;7.93;2.80;;;15.10;99.90;;;;;;4941191;28;90760;-31
2022/07/16 04:47:35;;;;;;;4.38;2.75;;;15.10;99.90;;;;;;4942205;28;88468;-34
2022/07/16 04:50:01;;;;;;;5.75;3.20;;;15.20;99.90;;;;;;4941475;28;90096;-33
2022/07/16 04:52:27;;;;;;;4.60;2.80;;;15.20;99.90;;;;;;4939666;28;89692;-33
2022/07/16 04:54:53;;;;;;;2.60;2.40;;;15.20;99.90;;;;;;4941751;28;89624;-32
2022/07/16 04:57:18;;;;;;;3.58;2.88;;;15.30;99.90;;;;;;4941771;28;89812;-31
2022/07/16 04:59:44;;;;;;;2.97;2.05;;;15.50;99.90;;;;;;4942612;28;89761;-30
2022/07/16 05:04:54;;;;;;;3.00;2.70;;;15.80;99.90;;;;;;4941750;28;89493;-34
2022/07/16 05:07:20;;;;;;;2.35;1.75;;;16.00;99.90;;;;;;4941013;28;88721;-31
2022/07/16 05:09:45;;;;;;;2.88;2.22;;;16.20;99.90;;;;;;4940821;28;90161;-30
2022/07/16 05:12:11;;;;;;;4.88;2.00;;;16.30;99.90;;;;;;4940793;28;89758;-30
2022/07/16 05:14:37;;;;;;;2.63;2.42;;;16.40;99.90;;;;;;4941396;28;89382;-33
2022/07/16 05:17:03;;;;;;;2.83;2.33;;;16.50;99.90;;;;;;4941749;28;90028;-33
2022/07/16 05:19:29;;;;;;;1.95;1.70;;;16.60;99.90;;;;;;4941224;28;90080;-31
2022/07/16 05:21:54;;;;;;;1.73;1.63;;;16.60;99.90;;;;;;4941370;28;90917;-29
2022/07/16 05:24:20;;;;;;;3.45;2.00;;;16.60;99.90;;;;;;4941122;28;90392;-30
2022/07/16 05:26:45;;;;;;;2.28;2.03;;;16.60;99.90;;;;;;4940469;28;89807;-33
2022/07/16 05:29:11;;;;;;;3.00;1.33;;;16.70;99.90;;;;;;4940821;28;90690;-34
2022/07/16 05:31:36;;;;;;;4.53;2.00;;;16.80;99.90;;;;;;4940566;28;91077;-31
2022/07/16 05:34:02;;;;;;;2.63;2.00;;;16.90;99.90;;;;;;4940883;28;89386;-31
2022/07/16 05:36:28;;;;;;;6.28;2.05;;;16.90;99.90;;;;;;4941465;28;88440;-32
2022/07/16 05:38:53;;;;;;;3.20;2.13;;;16.90;99.90;;;;;;4940779;28;90137;-30
2022/07/16 05:41:19;;;;;;;6.07;2.20;;;16.90;99.90;;;;;;4941117;28;89595;-32
2022/07/16 05:43:44;;;;;;;5.68;2.03;;;16.90;99.90;;;;;;4940807;28;89129;-31
2022/07/16 05:46:10;;;;;;;4.32;1.80;;;16.90;99.90;;;;;;4940992;28;88820;-30
2022/07/16 05:48:36;;;;;;;6.50;2.30;;;16.80;99.90;;;;;;4940706;28;90533;-31
2022/07/16 05:51:01;;;;;;;3.80;1.95;;;16.80;99.90;;;;;;4940545;28;89766;-31
2022/07/16 05:53:27;;;;;;;10.48;2.25;;;16.70;99.90;;;;;;4941159;28;89883;-32
2022/07/16 05:55:53;;;;;;;2.70;1.77;;;16.80;99.90;;;;;;4940369;28;88912;-32
2022/07/16 05:58:18;;;;;;;2.97;2.15;;;16.90;99.90;;;;;;4940794;28;90339;-31
2022/07/16 06:00:44;;;;;;;6.22;2.42;;;16.90;99.90;;;;;;4940630;28;89532;-32
2022/07/16 06:03:09;;;;;;;2.15;1.63;;;16.80;99.90;;;;;;4940513;28;89394;-31
2022/07/16 06:05:35;;;;;;;2.72;1.60;;;16.80;99.90;;;;;;4940616;28;88695;-32
2022/07/16 06:08:01;;;;;;;5.10;2.80;;;16.80;99.90;;;;;;4939997;28;90143;-31
2022/07/16 06:10:27;;;;;;;6.60;1.88;;;16.90;99.90;;;;;;4940617;28;89838;-31
2022/07/16 06:12:52;;;;;;;3.55;1.65;;;17.10;99.90;;;;;;4940478;28;89911;-30
2022/07/16 06:15:18;;;;;;;4.60;2.60;;;17.30;99.90;;;;;;4942502;28;89924;-33
2022/07/16 06:17:44;;;;;;;6.43;2.35;;;17.50;99.90;;;;;;4940317;28;90277;-34
2022/07/16 06:20:10;;;;;;;7.72;2.08;;;17.60;99.90;;;;;;4943626;28;90738;-31
2022/07/16 06:22:37;;;;;;;2.28;1.27;;;17.80;99.90;;;;;;4948289;28;91263;-32
2022/07/16 06:25:03;;;;;;;7.45;2.05;;;18.00;99.90;;;;;;4941920;28;89209;-30
2022/07/16 06:27:29;;;;;;;4.50;2.22;;;18.00;99.90;;;;;;4944871;28;90305;-33
2022/07/16 06:29:54;;;;;;;6.68;1.90;;;18.20;99.90;;;;;;4944719;28;89632;-32
2022/07/16 06:32:20;;;;;;;2.22;1.30;;;18.30;99.90;;;;;;4944476;28;89657;-32
2022/07/16 06:34:46;;;;;;;4.03;1.83;;;18.40;99.90;;;;;;4941383;28;88781;-30
2022/07/16 06:37:11;;;;;;;3.72;0.90;;;18.60;99.90;;;;;;4942344;28;90281;-30
2022/07/16 06:39:38;;;;;;;3.53;1.55;;;18.90;99.90;;;;;;4944131;28;88635;-33
2022/07/16 06:42:04;;;;;;;7.03;1.93;;;18.90;99.90;;;;;;4939923;28;90852;-30
2022/07/16 06:44:30;;;;;;;9.25;2.03;;;18.80;99.90;;;;;;4940900;28;89043;-32
2022/07/16 06:46:56;;;;;;;6.68;1.63;;;18.70;99.90;;;;;;4942527;28;90555;-32
2022/07/16 06:49:21;;;;;;;4.28;1.30;;;18.50;99.90;;;;;;4945365;28;90242;-31
2022/07/16 06:51:47;;;;;;;3.78;1.45;;;18.30;99.90;;;;;;4943238;28;90602;-33
2022/07/16 06:54:13;;;;;;;6.18;2.05;;;18.10;99.90;;;;;;4941088;28;88852;-33
2022/07/16 06:56:38;;;;;;;2.55;1.52;;;18.00;99.90;;;;;;4949298;28;90190;-35
2022/07/16 06:59:04;;;;;;;4.88;1.65;;;18.00;99.90;;;;;;4939278;28;89700;-31
2022/07/16 07:01:29;;;;;;;3.30;1.48;;;17.90;99.90;;;;;;4931002;28;90372;-31
2022/07/16 07:03:55;;;;;;;4.10;1.67;;;17.70;99.90;;;;;;4936225;28;88827;-31
2022/07/16 07:06:20;;;;;;;2.55;1.63;;;17.60;99.90;;;;;;4940504;28;90215;-32
2022/07/16 07:08:47;;;;;;;4.72;1.50;;;17.70;99.90;;;;;;4941738;28;90420;-31
2022/07/16 07:11:13;;;;;;;3.70;1.10;;;18.00;99.90;;;;;;4940834;28;90784;-30
2022/07/16 07:13:38;;;;;;;1.90;1.00;;;18.20;99.90;;;;;;4941565;28;87822;-30
2022/07/16 07:16:05;;;;;;;9.18;1.88;;;18.40;99.90;;;;;;4941965;28;90078;-31
2022/07/16 07:18:33;;;;;;;3.15;1.42;;;18.50;99.90;;;;;;4940123;28;89269;-34
2022/07/16 07:20:59;;;;;;;2.65;1.20;;;18.70;99.90;;;;;;4940472;28;88995;-35
2022/07/16 07:23:25;;;;;;;4.35;1.60;;;18.80;99.90;;;;;;4940810;28;89732;-31
2022/07/16 07:25:51;;;;;;;8.95;1.45;;;18.90;99.90;;;;;;4941788;28;90223;-31
2022/07/16 07:28:17;;;;;;;4.65;2.03;;;19.20;99.90;;;;;;4941102;28;89632;-31
2022/07/16 07:30:42;;;;;;;7.45;1.77;;;19.40;99.90;;;;;;4948246;28;89539;-32
2022/07/16 07:33:08;;;;;;;7.65;0.85;;;19.60;99.90;;;;;;4940924;28;88965;-33
2022/07/16 07:35:33;;;;;;;4.97;2.03;;;19.60;99.90;;;;;;4941586;28;90409;-31
2022/07/16 07:37:59;;;;;;;2.00;1.20;;;19.60;99.90;;;;;;4943115;28;89571;-34
2022/07/16 07:40:25;;;;;;;3.80;1.13;;;19.60;99.90;;;;;;4941793;28;89783;-33
2022/07/16 07:42:50;;;;;;;6.00;1.08;;;19.50;99.90;;;;;;4943331;28;87964;-31
2022/07/16 07:45:16;;;;;;;2.72;1.25;;;19.30;99.90;;;;;;4939711;28;90973;-33
2022/07/16 07:47:41;;;;;;;5.22;1.38;;;19.10;99.90;;;;;;4947162;28;90048;-31
2022/07/16 07:50:09;;;;;;;5.03;1.58;;;19.20;99.90;;;;;;4950431;28;89114;-32
2022/07/16 07:52:35;;;;;;;3.13;0.93;;;19.30;99.90;;;;;;4956104;28;87688;-31
2022/07/16 07:55:01;;;;;;;2.20;1.13;;;19.30;99.90;;;;;;4956284;28;90727;-32
2022/07/16 07:57:26;;;;;;;1.38;1.27;;;19.40;99.90;;;;;;4955471;28;91059;-32
2022/07/16 07:59:52;;;;;;;2.75;1.35;;;19.30;99.90;;;;;;4955914;28;90741;-32
2022/07/16 08:02:17;;;;;;;2.58;1.08;;;19.30;99.90;;;;;;4953241;28;87889;-33
2022/07/16 08:04:43;;;;;;;3.10;1.35;;;19.20;99.90;;;;;;4953596;28;90154;-30
2022/07/16 08:07:09;;;;;;;1.05;0.75;;;19.00;99.90;;;;;;4951076;28;90266;-32
2022/07/16 08:09:35;;;;;;;1.95;1.20;;;18.70;99.90;;;;;;4951817;28;89632;-32
2022/07/16 08:12:02;;;;;;;4.03;1.15;;;18.40;99.90;;;;;;4951517;28;87654;-33
2022/07/16 08:14:27;;;;;;;3.72;1.35;;;18.30;99.90;;;;;;4952748;28;89352;-33
2022/07/16 08:16:53;;;;;;;3.83;1.27;;;18.20;99.90;;;;;;4952532;28;89800;-30
2022/07/16 08:19:19;;;;;;;6.63;1.25;;;18.00;99.90;;;;;;4951610;28;89046;-30
2022/07/16 08:21:45;;;;;;;2.80;1.63;;;18.10;99.90;;;;;;4948753;28;89093;-30
2022/07/16 08:26:55;;;;;;;2.75;1.58;;;18.40;99.90;;;;;;4940138;28;89720;-31
2022/07/16 08:29:20;;;;;;;2.00;1.10;;;18.40;99.90;;;;;;4939142;28;89796;-34
2022/07/16 08:31:46;;;;;;;6.50;1.35;;;18.70;99.90;;;;;;4940206;28;88775;-33
2022/07/16 08:34:12;;;;;;;2.35;1.33;;;19.20;99.90;;;;;;4940339;28;90230;-33
2022/07/16 08:36:37;;;;;;;1.65;1.00;;;19.50;99.90;;;;;;4944388;28;88577;-30
2022/07/16 08:39:03;;;;;;;4.22;1.55;;;19.80;99.90;;;;;;4948271;28;89899;-32
2022/07/16 08:41:31;;;;;;;10.30;1.08;;;19.90;97.20;;;;;;4953515;28;88795;-30
2022/07/16 08:43:58;;;;;;;1.95;1.05;;;20.00;98.80;;;;;;4952364;28;90369;-30
2022/07/16 08:46:25;;;;;;;2.75;0.77;;;20.10;97.30;;;;;;4944890;28;91245;-34
2022/07/16 08:48:52;;;;;;;1.83;0.90;;;20.30;90.50;;;;;;4952101;28;90467;-32
2022/07/16 08:51:30;;;;;;;4.22;1.00;;;20.30;90.00;;;;;;4953154;28;88018;-30
2022/07/16 08:53:58;;;;;;;2.25;1.65;;;20.40;92.70;;;;;;4951303;28;90419;-31
2022/07/16 08:56:26;;;;;;;0.98;0.88;;;20.40;76.50;;;;;;4951701;28;91410;-32
2022/07/16 08:58:52;;;;;;;5.22;1.23;;;20.20;90.30;;;;;;4949579;28;89538;-33
2022/07/16 09:01:18;;;;;;;3.78;1.20;;;20.00;87.60;;;;;;4949846;28;88759;-29
2022/07/16 09:03:43;;;;;;;3.20;1.00;;;19.70;83.30;;;;;;4949795;28;90115;-31
2022/07/16 09:06:09;;;;;;;2.50;0.95;;;19.70;85.10;;;;;;4949364;28;89558;-31
2022/07/16 09:08:34;;;;;;;1.80;1.17;;;19.90;96.10;;;;;;4948544;28;89847;-30
2022/07/16 09:11:17;;;;;;;8.00;1.40;;;20.20;95.00;;;;;;4950635;28;89169;-32
2022/07/16 09:14:01;;;;;;;3.92;0.95;;;20.70;92.90;;;;;;4951015;28;90180;-30
2022/07/16 09:16:35;;;;;;;3.50;0.80;;;21.00;90.60;;;;;;4949669;28;89727;-32
2022/07/16 09:19:18;;;;;;;1.45;0.93;;;21.30;82.90;;;;;;4944690;28;89811;-31
2022/07/16 09:22:19;;;;;;;2.35;1.00;;;21.20;83.00;;;;;;4942354;28;88555;-32
2022/07/16 09:24:54;;;;;;;1.15;0.98;;;20.90;76.60;;;;;;4905956;28;90291;-31
2022/07/16 09:27:24;;;;;;;1.90;1.35;;;20.50;86.80;;;;;;4935917;28;90228;-32
2022/07/16 09:29:58;;;;;;;3.47;0.85;;;20.20;98.70;;;;;;4950463;28;89590;-31
2022/07/16 09:32:30;;;;;;;2.75;0.63;;;20.10;99.20;;;;;;4948490;28;88337;-31
2022/07/16 09:35:11;;;;;;;7.13;1.67;;;20.10;99.90;;;;;;4945504;28;89963;-31
2022/07/16 09:37:54;;;;;;;2.33;1.33;;;20.20;99.90;;;;;;4947125;28;90283;-31
2022/07/16 09:40:42;;;;;;;2.05;0.95;;;20.10;99.60;;;;;;4942339;28;91029;-30
2022/07/16 09:43:11;;;;;;;6.05;1.35;;;20.00;99.90;;;;;;4939343;28;88531;-32
2022/07/16 09:45:39;;;;;;;1.55;0.90;;;19.90;99.90;;;;;;4940817;28;88665;-31
2022/07/16 09:48:21;;;;;;;;;;;19.80;99.90;;;;;;4938369;28;90310;-30
2022/07/16 09:50:48;;;;;;;3.17;1.17;;;19.70;99.90;;;;;;4945433;28;89141;-31
2022/07/16 09:53:25;;;;;;;1.45;1.20;;;19.60;99.90;;;;;;4945817;28;89993;-30
2022/07/16 09:56:02;;;;;;;1.88;1.20;;;19.50;99.90;;;;;;4944517;28;90264;-33
2022/07/16 09:58:29;;;;;;;4.97;1.80;;;19.40;99.90;;;;;;4945555;28;89737;-33
2022/07/16 10:00:55;;;;;;;5.37;2.33;;;19.30;99.90;;;;;;4948818;28;89569;-31
2022/07/16 10:03:21;;;;;;;4.30;1.67;;;19.30;99.90;;;;;;4947820;28;89021;-30
2022/07/16 10:05:47;;;;;;;2.47;1.35;;;19.30;99.90;;;;;;4950572;28;90372;-32
2022/07/16 10:08:13;;;;;;;4.07;1.85;;;19.20;99.90;;;;;;4948276;28;90225;-31
2022/07/16 10:10:39;;;;;;;2.88;1.48;;;19.30;99.90;;;;;;4950050;28;89508;-33
2022/07/16 10:13:05;;;;;;;6.13;2.03;;;19.70;99.90;;;;;;4948824;28;88015;-31
2022/07/16 10:15:31;;;;;;;4.25;1.75;;;19.90;99.90;;;;;;4949044;28;90226;-30
2022/07/16 10:17:56;;;;;;;7.32;1.80;;;20.10;99.90;;;;;;4946325;28;89547;-31
2022/07/16 10:20:22;;;;;;;4.03;1.17;;;20.20;99.90;;;;;;4948431;28;91608;-31
2022/07/16 10:22:51;;;;;;;3.50;1.45;;;20.20;99.90;;;;;;4949094;28;88807;-33
2022/07/16 10:25:25;;;;;;;6.93;1.38;;;20.30;99.90;;;;;;4949257;28;89381;-32
2022/07/16 10:27:53;;;;;;;3.85;1.42;;;20.40;99.20;;;;;;4948630;28;90770;-30
2022/07/16 10:30:21;;;;;;;3.42;1.40;;;20.30;99.90;;;;;;4950066;28;90591;-34
2022/07/16 10:32:59;;;;;;;5.97;1.38;;;20.30;99.90;;;;;;4947947;28;88319;-32
2022/07/16 10:35:47;;;;;;;11.75;1.42;;;20.10;99.90;;;;;;4947418;28;90596;-31
2022/07/16 10:38:22;;;;;;;1.88;0.88;;;20.00;99.90;;;;;;4947311;28;89544;-31
2022/07/16 10:41:08;;;;;;;7.03;1.65;;;19.90;99.90;;;;;;4949107;28;89144;-33
2022/07/16 10:43:34;;;;;;;4.20;1.10;;;19.80;99.90;;;;;;4948121;28;88240;-32
2022/07/16 10:46:05;;;;;;;1.98;0.98;;;19.90;97.80;;;;;;4949428;28;90752;-34
2022/07/16 10:48:57;;;;;;;1.45;1.05;;;20.00;99.90;;;;;;4947179;28;89801;-33
2022/07/16 10:51:26;;;;;;;3.88;1.20;;;20.40;94.20;;;;;;4942843;28;89165;-32
2022/07/16 10:53:57;;;;;;;4.60;1.60;;;20.50;93.00;;;;;;4946559;28;89078;-30
2022/07/16 10:56:48;;;;;;;6.13;1.70;;;20.50;78.50;;;;;;4945404;28;90300;-32
2022/07/16 10:59:23;;;;;;;1.88;1.10;;;20.40;93.90;;;;;;4948395;28;89864;-29
2022/07/16 11:01:53;;;;;;;4.07;1.83;;;20.20;99.90;;;;;;4949164;28;89655;-31
2022/07/16 11:04:48;;;;;;;2.88;1.30;;;20.10;99.90;;;;;;4948357;28;88355;-32
2022/07/16 11:07:19;;;;;;;1.67;1.58;;;20.00;99.90;;;;;;4939096;28;90335;-33
2022/07/16 11:09:50;;;;;;;2.97;1.08;;;20.20;93.60;;;;;;4948994;28;89978;-32
2022/07/16 11:12:18;;;;;;;2.38;1.45;;;20.30;86.10;;;;;;4948973;28;89232;-32
2022/07/16 11:14:45;;;;;;;;;;;20.50;97.00;;;;;;4949864;28;88455;-33
2022/07/16 11:17:11;;;;;;;3.05;1.63;;;20.60;92.50;;;;;;4949005;28;90222;-30
2022/07/16 11:19:42;;;;;;;3.13;1.50;;;20.70;85.60;;;;;;4946649;28;91367;-31
2022/07/16 11:22:09;;;;;;;4.38;1.25;;;20.80;71.80;;;;;;4948221;28;90616;-32
2022/07/16 11:24:34;;;;;;;3.20;1.50;;;20.70;74.20;;;;;;4948872;28;88410;-31
2022/07/16 11:27:02;;;;;;;2.75;1.20;;;20.60;77.50;;;;;;4954044;28;90149;-32
2022/07/16 11:29:29;;;;;;;4.20;1.33;;;20.40;79.00;;;;;;4952568;28;90340;-33
2022/07/16 11:31:56;;;;;;;1.58;1.10;;;20.50;79.20;;;;;;4950920;28;89579;-30
2022/07/16 11:34:22;;;;;;;8.80;2.00;;;20.60;76.60;;;;;;4949328;28;88592;-31
2022/07/16 11:36:52;;;;;;;5.30;1.55;;;20.70;72.10;;;;;;4950280;28;90790;-32
2022/07/16 11:39:25;;;;;;;1.83;1.10;;;20.90;77.70;;;;;;4951103;28;89564;-32
2022/07/16 11:41:53;;;;;;;2.42;1.15;;;21.10;67.00;;;;;;4950533;28;89374;-32
2022/07/16 11:44:33;;;;;;;7.47;1.00;;;21.30;66.40;;;;;;4950193;28;88134;-31
2022/07/16 11:47:01;;;;;;;3.17;1.35;;;21.40;64.10;;;;;;4949551;28;90380;-36
2022/07/16 11:49:29;;;;;;;3.33;1.23;;;21.30;63.50;;;;;;4949460;28;89640;-32
2022/07/16 11:51:58;;;;;;;2.45;1.13;;;21.00;63.30;;;;;;4950623;28;89493;-31
2022/07/16 11:54:24;;;;;;;3.92;1.58;;;20.80;69.90;;;;;;4950461;28;87933;-32
2022/07/16 11:56:50;;;;;;;2.70;1.33;;;20.70;83.70;;;;;;4948587;28;88938;-32
2022/07/16 11:59:25;;;;;;;1.75;0.82;;;20.90;86.30;;;;;;4947208;28;89601;-33
2022/07/16 12:02:10;;;;;;;2.53;1.50;;;21.20;73.00;;;;;;4949581;28;89505;-32
2022/07/16 12:04:36;;;;;;;1.98;1.40;;;21.10;68.00;;;;;;4950963;28;88762;-32
2022/07/16 12:07:10;;;;;;;4.35;1.27;;;20.80;69.10;;;;;;4951029;28;89236;-30
2022/07/16 12:09:44;;;;;;;1.23;0.95;;;20.60;76.50;;;;;;4928482;28;90456;-34
2022/07/16 12:12:14;;;;;;;2.10;1.02;;;20.40;75.20;;;;;;4928688;28;90732;-32
2022/07/16 12:14:50;;;;;;;4.20;1.63;;;20.30;79.00;;;;;;4927702;28;89049;-33
2022/07/16 12:17:24;;;;;;;4.05;1.27;;;20.20;81.80;;;;;;4928272;28;89319;-31
2022/07/16 12:20:22;;;;;;;2.25;0.93;;;20.20;83.10;;;;;;4927183;28;90245;-30
2022/07/16 12:23:00;;;;;;;4.93;1.42;;;20.30;82.60;;;;;;4929618;28;90068;-33
2022/07/16 12:25:26;;;;;;;2.78;1.38;;;20.30;86.30;;;;;;4930184;28;88099;-31
2022/07/16 12:27:58;;;;;;;3.47;2.08;;;20.20;91.30;;;;;;4928361;28;90158;-33
2022/07/16 12:30:39;;;;;;;8.20;1.42;;;20.10;90.40;;;;;;4929393;28;90056;-30
2022/07/16 12:33:15;;;;;;;2.45;1.30;;;20.20;91.00;;;;;;4926881;28;89485;-30
2022/07/16 12:35:48;;;;;;;2.80;1.23;;;20.40;83.20;;;;;;4935816;28;88029;-31
2022/07/16 12:39:02;;;;;;;2.40;0.80;;;20.60;80.00;;;;;;4931781;28;91380;-33
2022/07/16 12:41:29;;;;;;;2.03;0.85;;;20.80;71.40;;;;;;4930694;28;88573;-31
2022/07/16 12:44:00;;;;;;;1.92;0.93;;;21.00;74.50;;;;;;4927228;28;89003;-31
2022/07/16 12:46:35;;;;;;;3.42;1.17;;;21.30;74.10;;;;;;4926456;28;89257;-30
2022/07/16 12:49:07;;;;;;;4.10;0.95;;;21.50;71.60;;;;;;4926742;28;90392;-31
2022/07/16 12:51:36;;;;;;;4.43;1.73;;;21.70;69.30;;;;;;4927411;28;89742;-32
2022/07/16 12:54:03;;;;;;;4.28;1.42;;;21.70;67.70;;;;;;4925013;28;89121;-33
2022/07/16 12:59:15;;;;;;;1.30;0.95;;;21.70;65.50;;;;;;4926575;28;89619;-31
2022/07/16 13:01:41;;;;;;;3.25;1.98;;;21.80;63.10;;;;;;4925199;28;91581;-32
2022/07/16 13:04:07;;;;;;;7.20;1.92;;;21.60;64.50;;;;;;4927828;28;89326;-32